Time;durP1;ratioP1;P1;durP2;ratioP2;P2;SDS_P1;SDS_P2;PMS_P1;PMS_P2;Temp;Humidity;BMP_temperature;BMP_pressure;BME280_temperature;BME280_humidity;BME280_pressure;Samples;Min_cycle;Max_cycle;Signal;HPM_P1;HPM_P2
2021/10/06 00:01:20;;;;;;;0.80;0.40;;;;;;;-142.37;100.00;59669.53;5056990;28;20544;-70
2021/10/06 00:03:47;;;;;;;0.85;0.40;;;;;;;-142.37;100.00;59669.53;5056703;28;20483;-72
2021/10/06 00:06:42;;;;;;;0.80;0.50;;;;;;;-142.37;100.00;59669.53;5038784;28;20621;-72
2021/10/06 00:09:20;;;;;;;0.25;0.25;;;;;;;-142.37;100.00;59669.53;4956895;29;20047;-72
2021/10/06 00:11:45;;;;;;;1.15;0.50;;;;;;;-142.37;100.00;59669.53;4955986;28;20031;-71
2021/10/06 00:14:11;;;;;;;1.15;0.43;;;;;;;-142.37;100.00;59669.53;4956452;29;20090;-72
2021/10/06 00:16:39;;;;;;;1.92;0.40;;;;;;;-142.37;100.00;59669.53;4956191;29;20383;-72
2021/10/06 00:19:07;;;;;;;0.82;0.40;;;;;;;-142.37;100.00;59669.53;4956459;29;20411;-72
2021/10/06 00:21:34;;;;;;;1.85;0.85;;;;;;;-142.37;100.00;59669.53;4940311;29;20074;-72
2021/10/06 00:24:02;;;;;;;0.75;0.50;;;;;;;-142.37;100.00;59669.53;4957467;29;20031;-73
2021/10/06 00:26:28;;;;;;;1.10;0.47;;;;;;;-142.37;100.00;59669.53;4939937;29;20038;-72
2021/10/06 00:29:22;;;;;;;0.63;0.30;;;;;;;-142.37;100.00;59669.53;4956258;29;20063;-72
2021/10/06 00:31:48;;;;;;;1.57;0.40;;;;;;;-142.37;100.00;59669.53;4899181;29;20047;-71
2021/10/06 00:34:15;;;;;;;0.88;0.30;;;;;;;-142.37;100.00;59669.53;4899142;29;20271;-72
2021/10/06 00:36:49;;;;;;;0.90;0.40;;;;;;;-142.37;100.00;59669.53;4898973;29;20499;-72
2021/10/06 00:39:15;;;;;;;0.60;0.40;;;;;;;-142.37;100.00;59669.53;4883505;29;20047;-72
2021/10/06 00:41:49;;;;;;;0.93;0.32;;;;;;;-142.37;100.00;59669.53;4898919;29;20040;-72
2021/10/06 00:44:16;;;;;;;;;;;;;;;-142.37;100.00;59669.53;4899345;29;20039;-72
2021/10/06 00:46:52;;;;;;;0.60;0.38;;;;;;;-142.37;100.00;59669.53;4955504;29;19914;-72
2021/10/06 00:49:28;;;;;;;1.00;0.35;;;;;;;-142.37;100.00;59669.53;4955900;29;20058;-73
2021/10/06 00:52:02;;;;;;;0.98;0.57;;;;;;;-142.37;100.00;59669.53;4956055;29;20114;-72
2021/10/06 00:54:29;;;;;;;0.70;0.40;;;;;;;-142.37;100.00;59669.53;4955505;29;20044;-73
2021/10/06 00:56:55;;;;;;;0.65;0.35;;;;;;;-142.37;100.00;59669.53;4941777;29;20023;-73
2021/10/06 00:59:30;;;;;;;0.50;0.47;;;;;;;-142.37;100.00;59669.53;4939714;29;20394;-73
2021/10/06 01:01:57;;;;;;;1.02;0.40;;;;;;;-142.37;100.00;59669.53;4955911;29;20501;-72
2021/10/06 01:04:33;;;;;;;0.40;0.30;;;;;;;-142.37;100.00;59669.53;4955312;29;20082;-72
2021/10/06 01:07:02;;;;;;;0.70;0.60;;;;;;;-142.37;100.00;59669.53;4956114;28;20067;-74
2021/10/06 01:09:36;;;;;;;0.40;0.30;;;;;;;-142.37;100.00;59669.53;5035881;28;20075;-71
2021/10/06 01:12:02;;;;;;;0.98;0.40;;;;;;;-142.37;100.00;59669.53;5034918;28;20025;-72
2021/10/06 01:14:28;;;;;;;0.80;0.30;;;;;;;-142.37;100.00;59669.53;5034349;28;20050;-72
2021/10/06 01:16:55;;;;;;;0.75;0.50;;;;;;;-142.37;100.00;59669.53;5035423;28;20026;-72
2021/10/06 01:19:26;;;;;;;0.28;0.25;;;;;;;-142.37;100.00;59669.53;5035455;28;20056;-71
2021/10/06 01:21:58;;;;;;;0.55;0.40;;;;;;;-142.37;100.00;59669.53;5035488;28;20021;-72
2021/10/06 01:24:25;;;;;;;0.90;0.50;;;;;;;-142.37;100.00;59669.53;5034027;28;20025;-72
2021/10/06 01:27:03;;;;;;;1.35;0.40;;;;;;;-142.37;100.00;59669.53;5036412;28;20053;-72
2021/10/06 01:29:39;;;;;;;1.40;0.45;;;;;;;-142.37;100.00;59669.53;5035336;28;20630;-71
2021/10/06 01:32:13;;;;;;;0.93;0.40;;;;;;;-142.37;100.00;59669.53;5035253;28;20017;-73
2021/10/06 01:34:41;;;;;;;0.57;0.40;;;;;;;-142.37;100.00;59669.53;5035497;28;20025;-72
2021/10/06 01:37:09;;;;;;;0.57;0.40;;;;;;;-142.37;100.00;59669.53;5034120;28;20036;-72
2021/10/06 01:39:36;;;;;;;0.35;0.35;;;;;;;-142.37;100.00;59669.53;5033804;28;20080;-73
2021/10/06 01:42:02;;;;;;;0.60;0.50;;;;;;;-142.37;100.00;59669.53;5034792;28;20053;-72
2021/10/06 01:44:27;;;;;;;0.38;0.38;;;;;;;-142.37;100.00;59669.53;5033551;28;20095;-71
2021/10/06 01:46:53;;;;;;;0.45;0.30;;;;;;;-142.37;100.00;59669.53;5034729;28;20112;-72
2021/10/06 01:49:20;;;;;;;0.60;0.50;;;;;;;-142.37;100.00;59669.53;5034329;28;20040;-73
2021/10/06 01:51:46;;;;;;;0.43;0.28;;;;;;;-142.37;100.00;59669.53;5034824;28;20030;-73
2021/10/06 01:54:12;;;;;;;0.40;0.22;;;;;;;-142.37;100.00;59669.53;5035308;28;20080;-71
2021/10/06 01:56:54;;;;;;;0.30;0.30;;;;;;;-142.37;100.00;59669.53;5033403;28;20017;-72
2021/10/06 01:59:20;;;;;;;0.30;0.20;;;;;;;-142.37;100.00;59669.53;5034621;28;20028;-72
2021/10/06 02:01:56;;;;;;;0.50;0.40;;;;;;;-142.37;100.00;59669.53;5034693;28;20443;-71
2021/10/06 02:04:22;;;;;;;0.60;0.25;;;;;;;-142.37;100.00;59669.53;5034391;28;20133;-72
2021/10/06 02:06:56;;;;;;;2.00;0.30;;;;;;;-142.37;100.00;59669.53;5034699;28;20108;-72
2021/10/06 02:09:22;;;;;;;1.92;0.30;;;;;;;-142.37;100.00;59669.53;5034575;28;20021;-72
2021/10/06 02:11:47;;;;;;;0.65;0.38;;;;;;;-142.37;100.00;59669.53;5034572;28;20029;-71
2021/10/06 02:14:14;;;;;;;0.75;0.50;;;;;;;-142.37;100.00;59669.53;5052405;28;20041;-72
2021/10/06 02:16:40;;;;;;;1.98;0.35;;;;;;;-142.37;100.00;59669.53;5054223;28;20029;-73
2021/10/06 02:19:07;;;;;;;0.75;0.50;;;;;;;-142.37;100.00;59669.53;5036840;28;20024;-72
2021/10/06 02:21:34;;;;;;;0.43;0.17;;;;;;;-142.37;100.00;59669.53;5054441;28;20027;-72
2021/10/06 02:24:02;;;;;;;0.50;0.40;;;;;;;-142.37;100.00;59669.53;5054283;28;20495;-72
2021/10/06 02:26:38;;;;;;;0.30;0.30;;;;;;;-142.37;100.00;59669.53;5054155;28;20475;-73
2021/10/06 02:29:04;;;;;;;0.38;0.17;;;;;;;-142.37;100.00;59669.53;5054144;28;20067;-71
2021/10/06 02:31:32;;;;;;;1.00;0.28;;;;;;;-142.37;100.00;59669.53;5054133;28;20119;-72
2021/10/06 02:33:58;;;;;;;0.55;0.30;;;;;;;-142.37;100.00;59669.53;5054060;28;20371;-72
2021/10/06 02:36:24;;;;;;;0.80;0.20;;;;;;;-142.37;100.00;59669.53;5054187;28;20013;-73
2021/10/06 02:38:51;;;;;;;0.43;0.20;;;;;;;-142.37;100.00;59669.53;5054296;28;20072;-73
2021/10/06 02:41:17;;;;;;;0.57;0.25;;;;;;;-142.37;100.00;59669.53;5054111;28;20032;-73
2021/10/06 02:43:50;;;;;;;1.00;0.20;;;;;;;-142.37;100.00;59669.53;5036290;28;20120;-73
2021/10/06 02:46:15;;;;;;;0.52;0.20;;;;;;;-142.37;100.00;59669.53;5053801;28;20036;-72
2021/10/06 02:48:41;;;;;;;1.70;0.28;;;;;;;-142.37;100.00;59669.53;5053972;28;20031;-72
2021/10/06 02:51:15;;;;;;;0.73;0.35;;;;;;;-142.37;100.00;59669.53;5054615;28;20020;-71
2021/10/06 02:53:41;;;;;;;0.30;0.30;;;;;;;-142.37;100.00;59669.53;5053973;28;20037;-73
2021/10/06 02:56:07;;;;;;;1.52;0.50;;;;;;;-142.37;100.00;59669.53;5035820;28;20025;-71
2021/10/06 02:58:40;;;;;;;1.08;0.43;;;;;;;-142.37;100.00;59669.53;5053738;28;20025;-72
2021/10/06 03:01:07;;;;;;;1.63;0.30;;;;;;;-142.37;100.00;59669.53;5055250;28;20029;-73
2021/10/06 03:03:34;;;;;;;0.93;0.30;;;;;;;-142.37;100.00;59669.53;5057960;28;20643;-72
2021/10/06 03:06:02;;;;;;;1.33;0.30;;;;;;;-142.37;100.00;59669.53;5058053;28;20095;-73
2021/10/06 03:08:41;;;;;;;0.68;0.20;;;;;;;-142.37;100.00;59669.53;5057892;28;20660;-72
2021/10/06 03:11:35;;;;;;;0.32;0.25;;;;;;;-142.37;100.00;59669.53;5057796;28;20021;-73
2021/10/06 03:14:01;;;;;;;0.17;0.10;;;;;;;-142.37;100.00;59669.53;4941688;29;20083;-72
2021/10/06 03:16:28;;;;;;;0.32;0.20;;;;;;;-142.37;100.00;59669.53;4941618;29;20102;-72
2021/10/06 03:18:55;;;;;;;1.02;0.30;;;;;;;-142.37;100.00;59669.53;4957626;29;20502;-73
2021/10/06 03:21:21;;;;;;;0.65;0.35;;;;;;;-142.37;100.00;59669.53;4957543;29;20039;-72
2021/10/06 03:23:47;;;;;;;0.85;0.30;;;;;;;-142.37;100.00;59669.53;4957511;29;20047;-72
2021/10/06 03:26:14;;;;;;;1.45;0.22;;;;;;;-142.37;100.00;59669.53;4957559;29;20039;-73
2021/10/06 03:28:41;;;;;;;0.47;0.20;;;;;;;-142.37;100.00;59669.53;4941308;29;20035;-73
2021/10/06 03:31:09;;;;;;;1.52;0.40;;;;;;;-142.37;100.00;59669.53;4957597;29;20057;-72
2021/10/06 03:33:36;;;;;;;1.65;0.20;;;;;;;-142.37;100.00;59669.53;4957110;29;20466;-73
2021/10/06 03:36:02;;;;;;;0.20;0.20;;;;;;;-142.37;100.00;59669.53;4957381;29;20031;-73
2021/10/06 03:38:28;;;;;;;0.63;0.15;;;;;;;-142.37;100.00;59669.53;4941052;29;20042;-72
2021/10/06 03:40:54;;;;;;;0.38;0.20;;;;;;;-142.37;100.00;59669.53;4958440;29;20375;-72
2021/10/06 03:43:22;;;;;;;0.43;0.20;;;;;;;-142.37;100.00;59669.53;4957020;28;20070;-72
2021/10/06 03:45:49;;;;;;;0.55;0.40;;;;;;;-142.37;100.00;59669.53;4957263;29;20027;-73
2021/10/06 03:48:17;;;;;;;0.40;0.40;;;;;;;-142.37;100.00;59669.53;4956986;29;20106;-71
2021/10/06 03:50:53;;;;;;;0.38;0.20;;;;;;;-142.37;100.00;59669.53;5020268;28;20033;-73
2021/10/06 03:53:19;;;;;;;0.30;0.20;;;;;;;-142.37;100.00;59669.53;5057062;28;20102;-72
2021/10/06 03:55:48;;;;;;;0.57;0.20;;;;;;;-142.37;100.00;59669.53;5039181;28;20025;-73
2021/10/06 03:58:15;;;;;;;0.20;0.20;;;;;;;-142.37;100.00;59669.53;5039202;28;20029;-72
2021/10/06 04:00:49;;;;;;;1.25;0.30;;;;;;;-142.37;100.00;59669.53;5056803;28;20094;-73
2021/10/06 04:03:14;;;;;;;0.47;0.10;;;;;;;-142.37;100.00;59669.53;5055532;28;20104;-72
2021/10/06 04:05:41;;;;;;;1.08;0.50;;;;;;;-142.37;100.00;59669.53;5056582;28;20155;-72
2021/10/06 04:08:07;;;;;;;0.20;0.20;;;;;;;-142.37;100.00;59669.53;5056651;28;20029;-72
2021/10/06 04:10:41;;;;;;;0.32;0.20;;;;;;;-142.37;100.00;59669.53;5058304;28;20535;-73
2021/10/06 04:13:06;;;;;;;0.57;0.30;;;;;;;-142.37;100.00;59669.53;5057058;28;20506;-72
2021/10/06 04:15:50;;;;;;;0.10;0.10;;;;;;;-142.37;100.00;59669.53;5056530;28;20052;-71
2021/10/06 04:18:21;;;;;;;0.43;0.13;;;;;;;-142.37;100.00;59669.53;5056584;28;20039;-73
2021/10/06 04:21:02;;;;;;;0.13;0.13;;;;;;;-142.37;100.00;59669.53;5056652;28;20036;-72
2021/10/06 04:23:28;;;;;;;0.13;0.10;;;;;;;-142.37;100.00;59669.53;5056490;28;20032;-72
2021/10/06 04:25:54;;;;;;;0.28;0.13;;;;;;;-142.37;100.00;59669.53;5056295;28;20459;-73
2021/10/06 04:28:20;;;;;;;0.52;0.20;;;;;;;-142.37;100.00;59669.53;5056602;28;20486;-72
2021/10/06 04:31:19;;;;;;;0.88;0.20;;;;;;;-142.37;100.00;59669.53;5038316;28;20045;-72
2021/10/06 04:33:46;;;;;;;0.10;0.10;;;;;;;-142.37;100.00;59669.53;4994672;28;20042;-72
2021/10/06 04:36:28;;;;;;;0.20;0.20;;;;;;;-142.37;100.00;59669.53;4978126;28;20050;-72
2021/10/06 04:38:54;;;;;;;0.22;0.20;;;;;;;-142.37;100.00;59669.53;4959469;28;20528;-71
2021/10/06 04:41:29;;;;;;;0.20;0.20;;;;;;;-142.37;100.00;59669.53;4976859;28;20394;-72
2021/10/06 04:43:55;;;;;;;1.05;0.50;;;;;;;-142.37;100.00;59669.53;4975291;28;20034;-71
2021/10/06 04:46:32;;;;;;;0.22;0.20;;;;;;;-142.37;100.00;59669.53;4975147;28;20030;-72
2021/10/06 04:49:01;;;;;;;0.47;0.20;;;;;;;-142.37;100.00;59669.53;4975669;28;20034;-72
2021/10/06 04:51:39;;;;;;;0.20;0.10;;;;;;;-142.37;100.00;59669.53;4975454;28;20119;-73
2021/10/06 04:54:04;;;;;;;6.13;0.73;;;;;;;-142.37;100.00;59669.53;4975106;28;20069;-71
2021/10/06 04:56:30;;;;;;;0.10;0.10;;;;;;;-142.37;100.00;59669.53;4958759;28;20058;-72
2021/10/06 04:59:05;;;;;;;0.30;0.22;;;;;;;-142.37;100.00;59669.53;4975098;28;20423;-72
2021/10/06 05:01:30;;;;;;;0.45;0.30;;;;;;;-142.37;100.00;59669.53;4974968;28;20126;-72
2021/10/06 05:04:09;;;;;;;1.10;0.40;;;;;;;-142.37;100.00;59669.53;4975377;28;20050;-72
2021/10/06 05:06:35;;;;;;;0.10;0.10;;;;;;;-142.37;100.00;59669.53;4974984;28;20050;-72
2021/10/06 05:09:02;;;;;;;0.70;0.20;;;;;;;-142.37;100.00;59669.53;4962292;28;20066;-72
2021/10/06 05:11:37;;;;;;;0.93;0.20;;;;;;;-142.37;100.00;59669.53;5035907;28;20044;-72
2021/10/06 05:14:03;;;;;;;0.45;0.20;;;;;;;-142.37;100.00;59669.53;5035333;28;20037;-72
2021/10/06 05:16:29;;;;;;;1.65;0.20;;;;;;;-142.37;100.00;59669.53;5035553;28;20396;-73
2021/10/06 05:18:56;;;;;;;0.47;0.20;;;;;;;-142.37;100.00;59669.53;5017845;28;20357;-72
2021/10/06 05:21:24;;;;;;;0.20;0.20;;;;;;;-142.37;100.00;59669.53;5035391;28;20492;-72
2021/10/06 05:23:51;;;;;;;0.73;0.20;;;;;;;-142.37;100.00;59669.53;5033236;28;20025;-72
2021/10/06 05:26:24;;;;;;;0.20;0.20;;;;;;;-142.37;100.00;59669.53;5044777;28;20062;-73
2021/10/06 05:28:54;;;;;;;0.10;0.05;;;;;;;-142.37;100.00;59669.53;5055510;28;20032;-71
2021/10/06 05:32:11;;;;;;;0.75;0.32;;;;;;;-142.37;100.00;59669.53;5055015;28;20071;-72
2021/10/06 05:34:39;;;;;;;0.00;0.00;;;;;;;-142.37;100.00;59669.53;4954799;29;20039;-71
2021/10/06 05:37:06;;;;;;;0.25;0.10;;;;;;;-142.37;100.00;59669.53;4954923;29;20114;-71
2021/10/06 05:39:32;;;;;;;0.73;0.28;;;;;;;-142.37;100.00;59669.53;4955114;29;20039;-72
2021/10/06 05:41:59;;;;;;;0.70;0.30;;;;;;;-142.37;100.00;59669.53;4954729;29;20078;-71
2021/10/06 05:44:24;;;;;;;0.43;0.17;;;;;;;-142.37;100.00;59669.53;4939053;29;20094;-71
2021/10/06 05:46:51;;;;;;;0.85;0.20;;;;;;;-142.37;100.00;59669.53;4954752;29;20043;-73
2021/10/06 05:49:17;;;;;;;0.43;0.10;;;;;;;-142.37;100.00;59669.53;4954665;29;20050;-72
2021/10/06 05:51:43;;;;;;;0.32;0.10;;;;;;;-142.37;100.00;59669.53;4954706;29;20438;-70
2021/10/06 05:54:10;;;;;;;0.70;0.15;;;;;;;-142.37;100.00;59669.53;4954718;29;20045;-71
2021/10/06 05:56:35;;;;;;;0.45;0.20;;;;;;;-142.37;100.00;59669.53;4954685;29;20526;-71
2021/10/06 05:59:15;;;;;;;0.50;0.15;;;;;;;-142.37;100.00;59669.53;4954127;29;20058;-72
2021/10/06 06:01:41;;;;;;;0.30;0.17;;;;;;;-142.37;100.00;59669.53;4938044;29;20097;-71
2021/10/06 06:04:17;;;;;;;0.10;0.10;;;;;;;-142.37;100.00;59669.53;4954129;29;20568;-72
2021/10/06 06:06:43;;;;;;;0.13;0.10;;;;;;;-142.37;100.00;59669.53;4954413;29;20050;-73
2021/10/06 06:09:12;;;;;;;0.50;0.20;;;;;;;-142.37;100.00;59669.53;4960992;28;20632;-70
2021/10/06 06:11:40;;;;;;;0.30;0.20;;;;;;;-142.37;100.00;59669.53;5054227;28;20096;-72
2021/10/06 06:14:05;;;;;;;0.20;0.10;;;;;;;-142.37;100.00;59669.53;5036276;28;20052;-72
2021/10/06 06:16:38;;;;;;;1.30;0.30;;;;;;;-142.37;100.00;59669.53;5054197;28;20021;-73
2021/10/06 06:19:06;;;;;;;0.22;0.13;;;;;;;-142.37;100.00;59669.53;5054221;28;20471;-71
2021/10/06 06:21:32;;;;;;;0.52;0.10;;;;;;;-142.37;100.00;59669.53;5054433;28;20055;-72
2021/10/06 06:24:04;;;;;;;0.98;0.40;;;;;;;-142.37;100.00;59669.53;5054289;28;20017;-72
2021/10/06 06:26:30;;;;;;;0.25;0.20;;;;;;;-142.37;100.00;59669.53;5054217;28;20035;-73
2021/10/06 06:28:57;;;;;;;0.50;0.20;;;;;;;-142.37;100.00;59669.53;5054189;28;20028;-72
2021/10/06 06:31:23;;;;;;;0.20;0.20;;;;;;;-142.37;100.00;59669.53;5054050;28;20059;-71
2021/10/06 06:33:49;;;;;;;0.20;0.10;;;;;;;-142.37;100.00;59669.53;5054134;28;20550;-72
2021/10/06 06:36:15;;;;;;;0.35;0.28;;;;;;;-142.37;100.00;59669.53;5036044;28;20365;-71
2021/10/06 06:38:40;;;;;;;0.10;0.10;;;;;;;-142.37;100.00;59669.53;5053984;28;20036;-71
2021/10/06 06:41:05;;;;;;;1.45;0.20;;;;;;;-142.37;100.00;59669.53;5053958;28;20029;-72
2021/10/06 06:43:32;;;;;;;0.20;0.20;;;;;;;-142.37;100.00;59669.53;5036273;28;20025;-72
2021/10/06 06:46:03;;;;;;;0.52;0.32;;;;;;;-142.37;100.00;59669.53;5053880;28;20029;-72
2021/10/06 06:48:30;;;;;;;0.60;0.38;;;;;;;-142.37;100.00;59669.53;5053864;28;20051;-72
2021/10/06 06:50:59;;;;;;;0.17;0.15;;;;;;;-142.37;100.00;59669.53;5053882;28;20505;-72
2021/10/06 06:53:27;;;;;;;0.25;0.25;;;;;;;-142.37;100.00;59669.53;5053845;28;20028;-72
2021/10/06 06:55:53;;;;;;;0.30;0.20;;;;;;;-142.37;100.00;59669.53;5053857;28;20031;-72
2021/10/06 06:58:20;;;;;;;0.32;0.20;;;;;;;-142.37;100.00;59669.53;5053734;28;20025;-71
2021/10/06 07:00:49;;;;;;;0.60;0.50;;;;;;;-142.37;100.00;59669.53;5053623;28;20033;-72
2021/10/06 07:03:17;;;;;;;0.10;0.10;;;;;;;-142.37;100.00;59669.53;5054248;28;20521;-72
2021/10/06 07:05:45;;;;;;;0.22;0.22;;;;;;;-142.37;100.00;59669.53;5053764;28;20033;-72
2021/10/06 07:08:20;;;;;;;0.10;0.10;;;;;;;-142.37;100.00;59669.53;5053628;28;20206;-72
2021/10/06 07:10:46;;;;;;;0.13;0.10;;;;;;;-142.37;100.00;59669.53;5053643;28;20028;-72
2021/10/06 07:13:11;;;;;;;0.28;0.28;;;;;;;-142.37;100.00;59669.53;5046003;28;20049;-71
2021/10/06 07:15:37;;;;;;;0.55;0.28;;;;;;;-142.37;100.00;59669.53;5053858;28;20375;-72
2021/10/06 07:18:16;;;;;;;0.25;0.20;;;;;;;-142.37;100.00;59669.53;5053597;28;20020;-72
2021/10/06 07:20:42;;;;;;;0.90;0.25;;;;;;;-142.37;100.00;59669.53;5053451;28;20075;-72
2021/10/06 07:23:07;;;;;;;0.50;0.10;;;;;;;-142.37;100.00;59669.53;5035775;28;20021;-71
2021/10/06 07:25:34;;;;;;;0.40;0.17;;;;;;;-142.37;100.00;59669.53;5053415;28;20115;-72
2021/10/06 07:27:59;;;;;;;0.65;0.30;;;;;;;-142.37;100.00;59669.53;5053664;28;20021;-72
2021/10/06 07:30:41;;;;;;;0.28;0.20;;;;;;;-142.37;100.00;59669.53;5053361;28;20024;-72
2021/10/06 07:33:07;;;;;;;0.40;0.20;;;;;;;-142.37;100.00;59669.53;5053494;28;20032;-72
2021/10/06 07:35:34;;;;;;;0.43;0.20;;;;;;;-142.37;100.00;59669.53;5053482;28;20025;-72
2021/10/06 07:37:59;;;;;;;0.30;0.15;;;;;;;-142.37;100.00;59669.53;5053562;28;20066;-69
2021/10/06 07:40:27;;;;;;;0.75;0.17;;;;;;;-142.37;100.00;59669.53;5035577;28;20025;-69
2021/10/06 07:42:53;;;;;;;1.00;0.20;;;;;;;-142.37;100.00;59669.53;5053378;28;20036;-69
2021/10/06 07:45:18;;;;;;;0.10;0.10;;;;;;;-142.37;100.00;59669.53;5053762;28;20048;-69
2021/10/06 07:47:44;;;;;;;0.65;0.17;;;;;;;-142.37;100.00;59669.53;5055652;28;20626;-70
2021/10/06 07:50:09;;;;;;;0.17;0.10;;;;;;;-142.37;100.00;59669.53;5056836;28;20040;-69
2021/10/06 07:52:35;;;;;;;0.20;0.10;;;;;;;-142.37;100.00;59669.53;5056906;28;20032;-69
2021/10/06 07:55:05;;;;;;;0.28;0.10;;;;;;;-142.37;100.00;59669.53;5057143;28;20029;-70
2021/10/06 07:57:30;;;;;;;0.20;0.10;;;;;;;-142.37;100.00;59669.53;5039220;28;20025;-69
2021/10/06 07:59:55;;;;;;;0.08;0.08;;;;;;;-142.37;100.00;59669.53;5057376;28;20025;-69
2021/10/06 08:02:34;;;;;;;0.70;0.20;;;;;;;-142.37;100.00;59669.53;5056880;28;20108;-70
2021/10/06 08:05:00;;;;;;;0.65;0.17;;;;;;;-142.37;100.00;59669.53;5056958;28;20530;-70
2021/10/06 08:07:33;;;;;;;0.55;0.13;;;;;;;-142.37;100.00;59669.53;5038840;28;20029;-68
2021/10/06 08:10:00;;;;;;;0.32;0.10;;;;;;;-142.37;100.00;59669.53;5056733;28;20025;-69
2021/10/06 08:12:28;;;;;;;0.75;0.22;;;;;;;-142.37;100.00;59669.53;5056618;28;20079;-69
2021/10/06 08:14:53;;;;;;;0.68;0.28;;;;;;;-142.37;100.00;59669.53;5056442;28;20041;-69
2021/10/06 08:17:27;;;;;;;0.35;0.20;;;;;;;-142.37;100.00;59669.53;5056524;28;20462;-69
2021/10/06 08:19:53;;;;;;;;;;;;;;;-142.37;100.00;59669.53;5057010;28;20052;-69
2021/10/06 08:22:19;;;;;;;0.63;0.10;;;;;;;-142.37;100.00;59669.53;5056643;28;19943;-71
2021/10/06 08:24:55;;;;;;;0.38;0.10;;;;;;;-142.37;100.00;59669.53;5039122;28;20380;-71
2021/10/06 08:27:29;;;;;;;1.48;0.20;;;;;;;-142.37;100.00;59669.53;5056476;28;20028;-70
2021/10/06 08:29:57;;;;;;;0.52;0.17;;;;;;;-142.37;100.00;59669.53;5038674;28;20017;-71
2021/10/06 08:32:28;;;;;;;0.52;0.30;;;;;;;-142.37;100.00;59669.53;5056158;28;20033;-69
2021/10/06 08:34:55;;;;;;;0.63;0.20;;;;;;;-142.37;100.00;59669.53;5056291;28;20032;-70
2021/10/06 08:37:29;;;;;;;0.77;0.10;;;;;;;-142.37;100.00;59669.53;5056146;28;20028;-70
2021/10/06 08:39:57;;;;;;;0.10;0.10;;;;;;;-142.37;100.00;59669.53;5056217;28;20468;-71
2021/10/06 08:42:31;;;;;;;2.05;0.30;;;;;;;-142.37;100.00;59669.53;5055952;28;20505;-69
2021/10/06 08:45:07;;;;;;;0.93;0.10;;;;;;;-142.37;100.00;59669.53;5038393;28;20429;-71
2021/10/06 08:47:40;;;;;;;0.70;0.30;;;;;;;-142.37;100.00;59669.53;5038148;28;20119;-71
2021/10/06 08:50:11;;;;;;;0.40;0.20;;;;;;;-142.37;100.00;59669.53;5056047;28;20029;-70
2021/10/06 08:52:36;;;;;;;0.93;0.30;;;;;;;-142.37;100.00;59669.53;5056097;28;20025;-71
2021/10/06 08:55:04;;;;;;;0.10;0.10;;;;;;;-142.37;100.00;59669.53;5055975;28;20066;-71
2021/10/06 08:57:32;;;;;;;0.10;0.10;;;;;;;-142.37;100.00;59669.53;5055584;28;20025;-69
2021/10/06 08:59:59;;;;;;;0.10;0.10;;;;;;;-142.37;100.00;59669.53;5055912;28;20055;-70
2021/10/06 09:02:42;;;;;;;0.10;0.10;;;;;;;-142.37;100.00;59669.53;5055820;28;20067;-70
2021/10/06 09:05:12;;;;;;;0.40;0.20;;;;;;;-142.37;100.00;59669.53;5055628;28;20063;-70
2021/10/06 09:07:59;;;;;;;0.60;0.20;;;;;;;-142.37;100.00;59669.53;5038182;28;20021;-70
2021/10/06 09:10:30;;;;;;;0.35;0.20;;;;;;;-142.37;100.00;59669.53;5055466;28;20032;-71
2021/10/06 09:12:56;;;;;;;0.15;0.10;;;;;;;-142.37;100.00;59669.53;5054605;28;20052;-70
2021/10/06 09:15:21;;;;;;;0.32;0.20;;;;;;;-142.37;100.00;59669.53;5055380;28;20069;-70
2021/10/06 09:18:04;;;;;;;0.47;0.30;;;;;;;-142.37;100.00;59669.53;5055522;28;20024;-71
2021/10/06 09:20:36;;;;;;;0.20;0.20;;;;;;;-142.37;100.00;59669.53;5055512;28;20021;-70
2021/10/06 09:23:05;;;;;;;0.20;0.10;;;;;;;-142.37;100.00;59669.53;5037571;28;20460;-70
2021/10/06 09:25:52;;;;;;;0.40;0.20;;;;;;;-142.37;100.00;59669.53;5055143;28;20097;-71
2021/10/06 09:28:27;;;;;;;0.32;0.10;;;;;;;-142.37;100.00;59669.53;5037704;28;20028;-70
2021/10/06 09:31:21;;;;;;;0.10;0.10;;;;;;;-142.37;100.00;59669.53;5055152;28;20100;-70
2021/10/06 09:33:56;;;;;;;0.35;0.30;;;;;;;-142.37;100.00;59669.53;4974414;28;20046;-70
2021/10/06 09:36:32;;;;;;;0.73;0.20;;;;;;;-142.37;100.00;59669.53;4974245;28;20039;-70
2021/10/06 09:39:10;;;;;;;0.68;0.17;;;;;;;-142.37;100.00;59669.53;4974291;28;20035;-70
2021/10/06 09:41:40;;;;;;;0.93;0.10;;;;;;;-142.37;100.00;59669.53;4974245;28;20158;-70
2021/10/06 09:44:07;;;;;;;0.85;0.10;;;;;;;-142.37;100.00;59669.53;4958193;28;20434;-69
2021/10/06 09:46:35;;;;;;;0.10;0.05;;;;;;;-142.37;100.00;59669.53;4974301;28;20073;-70
2021/10/06 09:49:01;;;;;;;0.10;0.10;;;;;;;-142.37;100.00;59669.53;4973994;28;20105;-71
2021/10/06 09:51:28;;;;;;;0.20;0.20;;;;;;;-142.37;100.00;59669.53;4974596;28;20061;-70
2021/10/06 09:54:05;;;;;;;1.23;0.38;;;;;;;-142.37;100.00;59669.53;4974436;28;20577;-70
2021/10/06 09:56:48;;;;;;;1.33;0.20;;;;;;;-142.37;100.00;59669.53;4957896;28;20106;-71
2021/10/06 09:59:15;;;;;;;0.28;0.10;;;;;;;-142.37;100.00;59669.53;4957548;28;20027;-70
2021/10/06 10:01:43;;;;;;;1.10;0.17;;;;;;;-142.37;100.00;59669.53;4973708;28;20493;-70
2021/10/06 10:04:12;;;;;;;0.20;0.10;;;;;;;-142.37;100.00;59669.53;4957803;28;20034;-71
2021/10/06 10:06:38;;;;;;;0.77;0.20;;;;;;;-142.37;100.00;59669.53;4957700;28;20035;-70
2021/10/06 10:09:07;;;;;;;0.73;0.10;;;;;;;-142.37;100.00;59669.53;4957305;28;20035;-70
2021/10/06 10:11:35;;;;;;;0.00;0.00;;;;;;;-142.37;100.00;59669.53;5047463;28;20033;-70
2021/10/06 10:14:02;;;;;;;0.30;0.10;;;;;;;-142.37;100.00;59669.53;5054058;28;20090;-71
2021/10/06 10:16:31;;;;;;;0.30;0.10;;;;;;;-142.37;100.00;59669.53;5036573;28;20017;-69
2021/10/06 10:19:26;;;;;;;1.10;0.60;;;;;;;-142.37;100.00;59669.53;5054377;28;20032;-70
2021/10/06 10:21:55;;;;;;;0.20;0.10;;;;;;;-142.37;100.00;59669.53;5054028;28;20024;-70
2021/10/06 10:24:26;;;;;;;0.30;0.10;;;;;;;-142.37;100.00;59669.53;5036198;28;20033;-70
2021/10/06 10:27:05;;;;;;;0.20;0.20;;;;;;;-142.37;100.00;59669.53;5053960;28;20039;-69
2021/10/06 10:29:35;;;;;;;0.32;0.17;;;;;;;-142.37;100.00;59669.53;5052971;28;20127;-71
2021/10/06 10:32:10;;;;;;;0.95;0.20;;;;;;;-142.37;100.00;59669.53;5054214;28;20494;-69
2021/10/06 10:34:58;;;;;;;0.15;0.10;;;;;;;-142.37;100.00;59669.53;5054313;28;20033;-70
2021/10/06 10:37:46;;;;;;;0.10;0.10;;;;;;;-142.37;100.00;59669.53;5044644;28;20372;-71
2021/10/06 10:40:43;;;;;;;0.10;0.10;;;;;;;-142.37;100.00;59669.53;5033517;28;20025;-69
2021/10/06 10:43:23;;;;;;;1.30;0.32;;;;;;;-142.37;100.00;59669.53;5016484;28;20473;-71
2021/10/06 10:46:11;;;;;;;0.85;0.20;;;;;;;-142.37;100.00;59669.53;5034433;28;20076;-70
2021/10/06 10:48:58;;;;;;;0.28;0.28;;;;;;;-142.37;100.00;59669.53;5033699;28;20025;-71
2021/10/06 10:51:49;;;;;;;0.70;0.20;;;;;;;-142.37;100.00;59669.53;5033941;28;20025;-70
2021/10/06 10:54:37;;;;;;;0.35;0.00;;;;;;;-142.37;100.00;59669.53;5016499;28;20029;-70
2021/10/06 10:57:21;;;;;;;1.38;0.20;;;;;;;-142.37;100.00;59669.53;5033726;28;20025;-70
2021/10/06 10:59:51;;;;;;;;;;;;;;;-142.37;100.00;59669.53;5034647;28;20519;-70
2021/10/06 11:02:24;;;;;;;0.45;0.08;;;;;;;-142.37;100.00;59669.53;5033842;28;19944;-70
2021/10/06 11:05:02;;;;;;;0.40;0.20;;;;;;;-142.37;100.00;59669.53;5033806;28;20021;-70
2021/10/06 11:07:28;;;;;;;0.52;0.00;;;;;;;-142.37;100.00;59669.53;5033655;28;20026;-70
2021/10/06 11:10:27;;;;;;;0.10;0.08;;;;;;;-142.37;100.00;59669.53;5033746;28;20040;-71
2021/10/06 11:13:03;;;;;;;0.47;0.10;;;;;;;-142.37;100.00;59669.53;4973168;28;20035;-71
2021/10/06 11:15:29;;;;;;;1.38;0.35;;;;;;;-142.37;100.00;59669.53;4953636;29;20035;-69
2021/10/06 11:18:17;;;;;;;0.55;0.20;;;;;;;-142.37;100.00;59669.53;4937803;29;20356;-71
2021/10/06 11:20:49;;;;;;;0.20;0.10;;;;;;;-142.37;100.00;59669.53;4953544;28;20027;-70
2021/10/06 11:23:30;;;;;;;0.40;0.10;;;;;;;-142.37;100.00;59669.53;4974200;28;20066;-70
2021/10/06 11:26:05;;;;;;;0.00;0.00;;;;;;;-142.37;100.00;59669.53;4976536;28;20122;-71